Time;durP1;ratioP1;P1;durP2;ratioP2;P2;SDS_P1;SDS_P2;PMS_P1;PMS_P2;Temp;Humidity;BMP_temperature;BMP_pressure;BME280_temperature;BME280_humidity;BME280_pressure;Samples;Min_cycle;Max_cycle;Signal;HPM_P1;HPM_P2
2023/04/16 00:01:39;;;;;;;29.77;10.45;;;8.60;99.90;;;;;;5058502;28;20739;-36
2023/04/16 00:04:05;;;;;;;36.10;10.48;;;8.60;99.90;;;;;;5059667;28;20502;-36
2023/04/16 00:06:30;;;;;;;27.20;10.40;;;8.60;99.90;;;;;;5060557;28;20044;-35
2023/04/16 00:08:57;;;;;;;30.77;10.10;;;8.60;99.90;;;;;;5068149;28;20078;-35
2023/04/16 00:11:22;;;;;;;30.98;10.65;;;8.60;99.90;;;;;;5062705;28;20063;-35
2023/04/16 00:13:48;;;;;;;34.40;11.40;;;8.60;99.90;;;;;;5069025;28;20075;-36
2023/04/16 00:16:14;;;;;;;31.70;10.98;;;8.60;99.90;;;;;;5063805;28;20052;-36
2023/04/16 00:18:40;;;;;;;27.65;10.15;;;8.60;99.90;;;;;;5064653;28;20498;-36
2023/04/16 00:21:06;;;;;;;28.23;11.10;;;8.60;99.90;;;;;;5065258;28;20048;-36
2023/04/16 00:23:32;;;;;;;36.15;11.50;;;8.60;99.90;;;;;;5074293;28;20064;-36
2023/04/16 00:25:58;;;;;;;33.13;11.57;;;8.60;99.90;;;;;;5069445;28;20506;-37
2023/04/16 00:28:25;;;;;;;36.70;10.88;;;8.60;99.90;;;;;;5068290;28;20178;-35
2023/04/16 00:30:50;;;;;;;33.50;12.25;;;8.60;99.90;;;;;;5062283;28;20048;-35
2023/04/16 00:33:16;;;;;;;33.83;11.23;;;8.60;99.90;;;;;;5045914;28;20056;-36
2023/04/16 00:35:45;;;;;;;37.05;11.50;;;8.70;99.90;;;;;;5063007;28;20044;-35
2023/04/16 00:38:11;;;;;;;34.30;12.07;;;8.70;99.90;;;;;;5060395;28;20556;-36
2023/04/16 00:40:37;;;;;;;39.10;11.13;;;8.60;99.90;;;;;;5065357;28;20048;-35
2023/04/16 00:43:02;;;;;;;35.13;10.90;;;8.70;99.90;;;;;;5060827;28;20406;-35
2023/04/16 00:45:28;;;;;;;37.33;11.95;;;8.70;99.90;;;;;;5062366;28;20514;-36
2023/04/16 00:47:55;;;;;;;36.28;12.77;;;8.60;99.90;;;;;;5064432;28;20063;-36
2023/04/16 00:50:21;;;;;;;36.78;12.40;;;8.60;99.90;;;;;;5060642;28;20047;-36
2023/04/16 00:52:47;;;;;;;45.78;13.45;;;8.70;99.90;;;;;;5070408;28;20402;-35
2023/04/16 00:55:16;;;;;;;43.22;13.65;;;8.60;99.90;;;;;;5069969;28;20106;-36
2023/04/16 00:57:42;;;;;;;43.92;13.48;;;8.70;99.90;;;;;;5071293;28;20049;-36
2023/04/16 01:00:08;;;;;;;41.90;13.18;;;8.60;99.90;;;;;;5065711;28;20043;-36
2023/04/16 01:02:35;;;;;;;38.97;13.07;;;8.60;99.90;;;;;;5066126;28;20820;-35
2023/04/16 01:05:02;;;;;;;33.75;12.02;;;8.60;99.90;;;;;;5050380;28;20069;-35
2023/04/16 01:07:28;;;;;;;39.13;12.98;;;8.60;99.90;;;;;;5065547;28;20079;-35
2023/04/16 01:09:54;;;;;;;40.83;11.93;;;8.60;99.90;;;;;;5070797;28;20056;-36
2023/04/16 01:12:19;;;;;;;45.35;13.38;;;8.60;99.90;;;;;;5070297;28;20486;-35
2023/04/16 01:14:45;;;;;;;43.72;13.68;;;8.60;99.90;;;;;;5064637;28;20064;-36
2023/04/16 01:17:11;;;;;;;36.85;12.93;;;8.60;99.90;;;;;;5066883;28;20059;-37
2023/04/16 01:19:37;;;;;;;44.97;13.65;;;8.60;99.90;;;;;;5063942;28;20056;-36
2023/04/16 01:22:04;;;;;;;39.33;14.00;;;8.60;99.90;;;;;;5063634;28;20493;-36
2023/04/16 01:24:30;;;;;;;45.15;14.80;;;8.60;99.90;;;;;;5062403;28;20479;-35
2023/04/16 01:26:58;;;;;;;46.25;14.30;;;8.60;99.90;;;;;;5065599;28;20064;-36
2023/04/16 01:29:24;;;;;;;42.55;15.18;;;8.60;99.90;;;;;;5063197;28;20098;-35
2023/04/16 01:31:49;;;;;;;42.80;13.35;;;8.60;99.90;;;;;;5059472;28;20059;-36
2023/04/16 01:34:15;;;;;;;37.17;14.13;;;8.60;99.90;;;;;;5058915;28;20052;-36
2023/04/16 01:36:41;;;;;;;44.28;13.80;;;8.60;99.90;;;;;;5062610;28;20052;-36
2023/04/16 01:39:10;;;;;;;43.75;14.23;;;8.60;99.90;;;;;;5059612;28;20418;-35
2023/04/16 01:41:36;;;;;;;41.15;14.13;;;8.60;99.90;;;;;;5062551;28;20059;-35
2023/04/16 01:44:01;;;;;;;45.45;13.75;;;8.60;99.90;;;;;;5057016;28;20370;-37
2023/04/16 01:46:29;;;;;;;36.45;13.10;;;8.60;99.90;;;;;;5062848;28;20119;-36
2023/04/16 01:48:56;;;;;;;39.50;13.43;;;8.60;99.90;;;;;;5064604;28;20056;-36
2023/04/16 01:51:22;;;;;;;46.15;14.13;;;8.60;99.90;;;;;;5063759;28;20041;-36
2023/04/16 01:53:49;;;;;;;49.33;14.23;;;8.60;99.90;;;;;;5069162;28;20041;-35
2023/04/16 01:56:15;;;;;;;44.33;14.15;;;8.60;99.90;;;;;;5067449;28;20106;-36
2023/04/16 01:58:41;;;;;;;42.70;14.65;;;8.60;99.90;;;;;;5068514;28;20060;-36
2023/04/16 02:01:07;;;;;;;34.60;11.65;;;8.60;99.90;;;;;;5066103;28;20395;-36
2023/04/16 02:03:33;;;;;;;45.00;14.25;;;8.60;99.90;;;;;;5048342;28;20516;-36
2023/04/16 02:06:00;;;;;;;38.25;12.85;;;8.60;99.90;;;;;;5062977;28;20044;-36
2023/04/16 02:08:26;;;;;;;44.63;14.40;;;8.60;99.90;;;;;;5068102;28;20052;-36
2023/04/16 02:10:52;;;;;;;36.67;13.35;;;8.60;99.90;;;;;;5067309;28;20044;-36
2023/04/16 02:13:18;;;;;;;43.70;14.23;;;8.60;99.90;;;;;;5066396;28;20051;-36
2023/04/16 02:15:47;;;;;;;41.10;13.88;;;8.60;99.90;;;;;;5065368;28;20045;-37
2023/04/16 02:18:13;;;;;;;40.45;13.32;;;8.60;99.90;;;;;;5059496;28;20040;-36
2023/04/16 02:20:43;;;;;;;39.40;13.25;;;8.60;99.90;;;;;;5061541;28;20045;-35
2023/04/16 02:23:10;;;;;;;41.97;13.63;;;8.60;99.90;;;;;;5057931;28;20439;-35
2023/04/16 02:25:40;;;;;;;49.35;14.18;;;8.60;99.90;;;;;;5062985;28;20053;-35
2023/04/16 02:28:10;;;;;;;42.00;13.65;;;8.60;99.90;;;;;;5058769;28;20106;-36
2023/04/16 02:30:36;;;;;;;41.72;13.55;;;8.60;99.90;;;;;;5063586;28;20057;-36
2023/04/16 02:33:04;;;;;;;37.97;13.45;;;8.60;99.90;;;;;;5040856;28;20052;-36
2023/04/16 02:35:31;;;;;;;34.20;12.18;;;8.60;99.90;;;;;;5055905;28;20517;-36
2023/04/16 02:37:57;;;;;;;34.05;11.32;;;8.60;99.90;;;;;;5049564;28;20416;-35
2023/04/16 02:40:23;;;;;;;36.58;12.77;;;8.60;99.90;;;;;;5056408;28;20442;-36
2023/04/16 02:42:49;;;;;;;40.10;13.30;;;8.60;99.90;;;;;;5063071;28;20048;-36
2023/04/16 02:45:14;;;;;;;35.70;12.77;;;8.60;99.90;;;;;;5064180;28;20133;-36
2023/04/16 02:47:40;;;;;;;33.25;12.75;;;8.60;99.90;;;;;;5057815;28;20056;-35
2023/04/16 02:50:06;;;;;;;29.90;12.65;;;8.60;99.90;;;;;;5057536;28;20056;-35
2023/04/16 02:52:32;;;;;;;34.20;12.52;;;8.60;99.90;;;;;;5052676;28;20094;-36
2023/04/16 02:54:58;;;;;;;31.48;12.45;;;8.70;99.90;;;;;;5064351;28;20052;-36
2023/04/16 02:57:24;;;;;;;29.27;12.70;;;8.70;99.90;;;;;;5055534;28;20574;-37
2023/04/16 02:59:50;;;;;;;36.20;12.85;;;8.70;99.90;;;;;;5059887;28;20151;-35
2023/04/16 03:02:16;;;;;;;31.95;12.48;;;8.70;99.90;;;;;;5057245;28;20106;-36
2023/04/16 03:04:41;;;;;;;34.97;13.00;;;8.70;99.90;;;;;;5058460;28;20053;-35
2023/04/16 03:07:08;;;;;;;36.05;12.95;;;8.70;99.90;;;;;;5056958;28;20057;-35
2023/04/16 03:09:34;;;;;;;28.70;12.27;;;8.70;99.90;;;;;;5057981;28;20056;-35
2023/04/16 03:12:03;;;;;;;29.52;13.45;;;8.60;99.90;;;;;;5055172;28;20056;-35
2023/04/16 03:14:29;;;;;;;32.42;11.98;;;8.70;99.90;;;;;;5060916;28;20073;-36
2023/04/16 03:16:55;;;;;;;28.90;11.95;;;8.70;99.90;;;;;;5062809;28;20506;-36
2023/04/16 03:19:21;;;;;;;35.70;13.45;;;8.70;99.90;;;;;;5058686;28;20143;-35
2023/04/16 03:21:47;;;;;;;28.45;12.25;;;8.70;99.90;;;;;;5062326;28;20136;-36
2023/04/16 03:24:12;;;;;;;34.40;12.02;;;8.70;99.90;;;;;;5059767;28;20142;-36
2023/04/16 03:26:38;;;;;;;29.95;12.68;;;8.60;99.90;;;;;;5058612;28;20044;-35
2023/04/16 03:29:04;;;;;;;34.78;13.38;;;8.70;99.90;;;;;;5061078;28;20498;-36
2023/04/16 03:31:30;;;;;;;27.73;11.95;;;8.70;99.90;;;;;;5060997;28;20102;-36
2023/04/16 03:33:56;;;;;;;28.95;13.23;;;8.60;99.90;;;;;;5059243;28;20052;-35
2023/04/16 03:36:22;;;;;;;32.90;12.43;;;8.60;99.90;;;;;;5061184;28;20098;-36
2023/04/16 03:38:48;;;;;;;32.45;13.15;;;8.60;99.90;;;;;;5062772;28;20052;-36
2023/04/16 03:41:14;;;;;;;31.38;12.32;;;8.60;99.90;;;;;;5058576;28;20043;-36
2023/04/16 03:43:40;;;;;;;29.38;11.57;;;8.60;99.90;;;;;;5058658;28;20056;-36
2023/04/16 03:46:05;;;;;;;32.10;13.85;;;8.60;99.90;;;;;;5061835;28;20048;-36
2023/04/16 03:48:31;;;;;;;28.10;10.60;;;8.60;99.90;;;;;;5059347;28;20053;-36
2023/04/16 03:50:57;;;;;;;28.83;11.57;;;8.60;99.90;;;;;;5060232;28;20072;-35
2023/04/16 03:53:22;;;;;;;27.15;11.85;;;8.60;99.90;;;;;;5063084;28;20405;-36
2023/04/16 03:55:52;;;;;;;31.05;12.45;;;8.60;99.90;;;;;;5065293;28;20135;-36
2023/04/16 03:58:18;;;;;;;34.83;12.30;;;8.60;99.90;;;;;;5060436;28;20105;-35
2023/04/16 04:00:44;;;;;;;34.45;12.32;;;8.60;99.90;;;;;;5060995;28;20461;-36
2023/04/16 04:03:10;;;;;;;25.45;10.18;;;8.60;99.90;;;;;;5060538;28;20056;-36
2023/04/16 04:05:37;;;;;;;32.08;12.20;;;8.60;99.90;;;;;;5062363;28;20106;-36
2023/04/16 04:08:04;;;;;;;31.75;12.95;;;8.60;99.90;;;;;;5067656;28;20063;-36
2023/04/16 04:10:31;;;;;;;30.15;12.88;;;8.60;99.90;;;;;;5063765;28;20463;-36
2023/04/16 04:12:57;;;;;;;31.77;13.35;;;8.60;99.90;;;;;;5061383;28;20055;-36
2023/04/16 04:15:23;;;;;;;28.52;13.48;;;8.50;99.90;;;;;;5065703;28;20056;-36
2023/04/16 04:17:49;;;;;;;25.08;9.98;;;8.50;99.90;;;;;;5064151;28;20057;-36
2023/04/16 04:20:15;;;;;;;24.42;11.23;;;8.50;99.90;;;;;;5056073;28;20059;-36
2023/04/16 04:22:40;;;;;;;34.45;12.73;;;8.60;99.90;;;;;;5057324;28;20091;-36
2023/04/16 04:25:08;;;;;;;31.38;14.27;;;8.60;99.90;;;;;;5063362;28;20048;-36
2023/04/16 04:27:34;;;;;;;30.63;11.60;;;8.60;99.90;;;;;;5059950;28;20056;-38
2023/04/16 04:30:00;;;;;;;28.10;11.43;;;8.60;99.90;;;;;;5058670;28;20056;-36
2023/04/16 04:32:25;;;;;;;30.42;12.75;;;8.60;99.90;;;;;;5061416;28;20053;-36
2023/04/16 04:34:51;;;;;;;28.55;11.40;;;8.60;99.90;;;;;;5062164;28;20052;-36
2023/04/16 04:37:17;;;;;;;34.88;13.13;;;8.60;99.90;;;;;;5060786;28;20048;-36
2023/04/16 04:39:42;;;;;;;27.77;12.18;;;8.60;99.90;;;;;;5063409;28;20052;-36
2023/04/16 04:42:08;;;;;;;28.92;11.57;;;8.60;99.90;;;;;;5059129;28;20044;-36
2023/04/16 04:44:34;;;;;;;30.38;12.23;;;8.60;99.90;;;;;;5061709;28;20450;-36
2023/04/16 04:46:59;;;;;;;31.92;12.57;;;8.60;99.90;;;;;;5062296;28;20067;-36
2023/04/16 04:49:25;;;;;;;28.33;11.48;;;8.60;99.90;;;;;;5056970;28;20063;-36
2023/04/16 04:51:51;;;;;;;31.40;12.45;;;8.60;99.90;;;;;;5060546;28;20048;-36
2023/04/16 04:54:16;;;;;;;37.90;13.85;;;8.60;99.90;;;;;;5056163;28;20053;-37
2023/04/16 04:56:44;;;;;;;36.88;14.18;;;8.60;99.90;;;;;;5043138;28;20295;-36
2023/04/16 04:59:11;;;;;;;32.30;12.52;;;8.60;99.90;;;;;;5063937;28;20079;-36
2023/04/16 05:01:37;;;;;;;35.25;13.65;;;8.60;99.90;;;;;;5059153;28;20094;-36
2023/04/16 05:04:03;;;;;;;39.10;14.80;;;8.60;99.90;;;;;;5061158;28;20059;-36
2023/04/16 05:06:28;;;;;;;36.65;13.98;;;8.60;99.90;;;;;;5061328;28;20048;-36
2023/04/16 05:08:54;;;;;;;40.97;14.63;;;8.60;99.90;;;;;;5061717;28;20102;-37
2023/04/16 05:11:20;;;;;;;39.35;15.38;;;8.60;99.90;;;;;;5067319;28;20040;-37
2023/04/16 05:13:45;;;;;;;32.45;14.80;;;8.50;99.90;;;;;;5065164;28;20098;-37
2023/04/16 05:16:11;;;;;;;39.80;14.45;;;8.60;99.90;;;;;;5052931;28;20134;-36
2023/04/16 05:18:37;;;;;;;46.97;16.13;;;8.60;99.90;;;;;;5061296;28;20061;-35
2023/04/16 05:21:03;;;;;;;39.35;15.68;;;8.60;99.90;;;;;;5061579;28;20063;-36
2023/04/16 05:23:28;;;;;;;41.10;14.00;;;8.60;99.90;;;;;;5062439;28;20402;-36
2023/04/16 05:25:54;;;;;;;40.47;14.25;;;8.60;99.90;;;;;;5059290;28;20510;-37
2023/04/16 05:28:20;;;;;;;43.83;15.45;;;8.60;99.90;;;;;;5063003;28;20052;-36
2023/04/16 05:30:45;;;;;;;35.47;15.38;;;8.60;99.90;;;;;;5062006;28;20522;-36
2023/04/16 05:33:11;;;;;;;41.20;15.48;;;8.70;99.90;;;;;;5060874;28;20402;-36
2023/04/16 05:35:37;;;;;;;44.90;15.18;;;8.70;99.90;;;;;;5061238;28;20063;-36
2023/04/16 05:38:03;;;;;;;38.70;16.02;;;8.70;99.90;;;;;;5058282;28;20053;-36
2023/04/16 05:40:29;;;;;;;39.80;16.63;;;8.70;99.90;;;;;;5059918;28;20068;-37
2023/04/16 05:42:55;;;;;;;32.97;14.23;;;8.70;99.90;;;;;;5060901;28;20505;-35
2023/04/16 05:45:20;;;;;;;43.15;15.85;;;8.80;99.90;;;;;;5059620;28;20048;-36
2023/04/16 05:47:46;;;;;;;37.08;15.18;;;8.80;99.90;;;;;;5059822;28;20139;-36
2023/04/16 05:50:12;;;;;;;35.22;13.68;;;8.80;99.90;;;;;;5064845;28;20175;-37
2023/04/16 05:52:38;;;;;;;44.60;16.25;;;8.90;99.90;;;;;;5058173;28;20053;-36
2023/04/16 05:55:04;;;;;;;31.73;14.82;;;8.90;99.90;;;;;;5063994;28;20187;-36
2023/04/16 05:57:30;;;;;;;31.23;14.40;;;8.90;99.90;;;;;;5065626;28;20593;-36
2023/04/16 05:59:55;;;;;;;31.88;13.35;;;8.90;99.90;;;;;;5066153;28;20167;-36
2023/04/16 06:02:21;;;;;;;34.88;15.65;;;8.90;99.90;;;;;;5047337;28;20056;-36
2023/04/16 06:04:48;;;;;;;30.95;13.82;;;8.90;99.90;;;;;;5063172;28;20426;-37
2023/04/16 06:07:14;;;;;;;33.63;15.85;;;8.90;99.90;;;;;;5063375;28;20048;-36
2023/04/16 06:09:39;;;;;;;32.42;14.60;;;9.00;99.90;;;;;;5064538;28;20056;-36
2023/04/16 06:12:05;;;;;;;34.78;15.07;;;9.00;99.90;;;;;;5065275;28;20508;-36
2023/04/16 06:14:31;;;;;;;28.95;13.60;;;9.00;99.90;;;;;;5064471;28;20426;-36
2023/04/16 06:16:56;;;;;;;32.45;14.07;;;9.00;99.90;;;;;;5044882;28;20092;-36
2023/04/16 06:19:22;;;;;;;31.55;14.82;;;9.10;99.90;;;;;;5060179;28;20044;-36
2023/04/16 06:21:47;;;;;;;35.20;15.15;;;9.10;99.90;;;;;;5065457;28;20049;-37
2023/04/16 06:24:13;;;;;;;33.17;14.57;;;9.10;99.90;;;;;;5067444;28;20056;-37
2023/04/16 06:26:39;;;;;;;32.80;15.02;;;9.10;99.90;;;;;;5046195;28;20059;-36
2023/04/16 06:29:04;;;;;;;30.48;15.18;;;9.20;99.90;;;;;;5067422;28;20091;-36
2023/04/16 06:31:30;;;;;;;26.10;12.63;;;9.20;99.90;;;;;;5065939;28;20131;-36
2023/04/16 06:33:56;;;;;;;32.97;14.00;;;9.20;99.90;;;;;;5043681;28;20375;-36
2023/04/16 06:36:21;;;;;;;27.73;12.18;;;9.20;99.90;;;;;;5060259;28;20057;-36
2023/04/16 06:38:47;;;;;;;34.20;13.32;;;9.20;99.90;;;;;;5065467;28;20048;-36
2023/04/16 06:41:13;;;;;;;34.80;13.73;;;9.20;99.90;;;;;;5061514;28;20056;-36
2023/04/16 06:43:39;;;;;;;32.80;12.98;;;9.20;99.90;;;;;;5064151;28;20075;-36
2023/04/16 06:46:05;;;;;;;25.35;11.82;;;9.30;99.90;;;;;;5059808;28;20490;-36
2023/04/16 06:48:30;;;;;;;29.58;12.85;;;9.30;99.90;;;;;;5060452;28;21240;-37
2023/04/16 06:50:56;;;;;;;34.60;14.05;;;9.30;99.90;;;;;;5044155;28;20514;-36
2023/04/16 06:53:22;;;;;;;24.92;13.07;;;9.30;99.90;;;;;;5063397;28;20179;-36
2023/04/16 06:55:48;;;;;;;30.13;13.45;;;9.30;99.90;;;;;;5063571;28;20499;-36
2023/04/16 06:58:14;;;;;;;33.70;13.25;;;9.30;99.90;;;;;;5063744;28;20061;-36
2023/04/16 07:00:40;;;;;;;31.50;11.68;;;9.30;99.90;;;;;;5063354;28;20490;-36
2023/04/16 07:03:05;;;;;;;30.85;13.57;;;9.30;99.90;;;;;;5060439;28;20044;-37
2023/04/16 07:05:31;;;;;;;35.15;13.98;;;9.40;99.90;;;;;;5059041;28;20052;-36
2023/04/16 07:07:58;;;;;;;28.77;12.07;;;9.40;99.90;;;;;;5063361;28;20056;-36
2023/04/16 07:10:24;;;;;;;33.63;14.07;;;9.40;99.90;;;;;;5061109;28;20174;-36
2023/04/16 07:12:50;;;;;;;29.73;13.57;;;9.40;99.90;;;;;;5061798;28;20055;-36
2023/04/16 07:15:15;;;;;;;39.80;13.32;;;9.40;99.90;;;;;;5061789;28;20049;-36
2023/04/16 07:17:41;;;;;;;32.80;13.32;;;9.50;99.90;;;;;;5058898;28;20052;-36
2023/04/16 07:20:07;;;;;;;32.65;13.95;;;9.50;99.90;;;;;;5061659;28;20045;-36
2023/04/16 07:22:33;;;;;;;30.98;13.18;;;9.50;99.90;;;;;;5058536;28;20063;-36
2023/04/16 07:24:59;;;;;;;36.75;13.80;;;9.50;99.90;;;;;;5064592;28;20433;-36
2023/04/16 07:27:24;;;;;;;31.40;13.38;;;9.50;99.90;;;;;;5067394;28;20478;-36
2023/04/16 07:29:50;;;;;;;35.53;13.77;;;9.60;99.90;;;;;;5064107;28;20175;-36
2023/04/16 07:32:16;;;;;;;31.95;13.23;;;9.60;99.90;;;;;;5060322;28;20429;-35
2023/04/16 07:34:41;;;;;;;32.53;12.85;;;9.60;99.90;;;;;;5066516;28;20578;-36
2023/04/16 07:37:07;;;;;;;35.15;12.95;;;9.60;99.90;;;;;;5064737;28;20379;-37
2023/04/16 07:39:33;;;;;;;33.95;12.75;;;9.60;99.90;;;;;;5059171;28;20433;-36
2023/04/16 07:41:59;;;;;;;31.85;12.73;;;9.70;99.90;;;;;;5061948;28;20095;-36
2023/04/16 07:44:25;;;;;;;32.40;12.10;;;9.80;99.90;;;;;;5060538;28;20053;-36
2023/04/16 07:46:51;;;;;;;33.75;12.57;;;9.90;99.90;;;;;;5062043;28;20473;-37
2023/04/16 07:49:17;;;;;;;28.48;12.93;;;10.10;99.90;;;;;;5063285;28;20194;-36
2023/04/16 07:51:42;;;;;;;31.85;12.23;;;10.30;99.90;;;;;;5059251;28;20049;-36
2023/04/16 07:54:08;;;;;;;27.40;12.88;;;10.50;99.90;;;;;;5063907;28;20048;-37
2023/04/16 07:56:34;;;;;;;34.80;12.10;;;10.60;99.90;;;;;;5066696;28;20500;-37
2023/04/16 07:59:00;;;;;;;23.17;10.40;;;10.70;99.90;;;;;;5064192;28;20048;-36
2023/04/16 08:01:26;;;;;;;24.40;11.02;;;10.80;99.90;;;;;;5065936;28;20106;-37
2023/04/16 08:03:51;;;;;;;25.02;10.45;;;10.90;99.90;;;;;;5066645;28;20405;-36
2023/04/16 08:06:17;;;;;;;21.30;10.63;;;10.90;99.90;;;;;;5064697;28;20413;-36
2023/04/16 08:08:43;;;;;;;22.00;10.65;;;10.90;99.90;;;;;;5063794;28;20041;-36
2023/04/16 08:11:09;;;;;;;25.10;10.65;;;11.00;99.90;;;;;;5064196;28;20406;-40
2023/04/16 08:13:34;;;;;;;18.02;9.57;;;11.20;99.90;;;;;;5064060;28;20499;-36
2023/04/16 08:16:00;;;;;;;25.27;10.68;;;11.30;99.90;;;;;;5060876;28;20036;-38
2023/04/16 08:18:26;;;;;;;23.30;10.77;;;11.40;99.90;;;;;;5064902;28;20049;-36
2023/04/16 08:20:52;;;;;;;25.02;11.20;;;11.60;99.90;;;;;;5065296;28;20040;-36
2023/04/16 08:23:17;;;;;;;23.75;9.80;;;11.70;99.90;;;;;;5061413;28;20049;-36
2023/04/16 08:25:43;;;;;;;21.75;9.88;;;11.80;99.90;;;;;;5045375;28;20076;-37
2023/04/16 08:28:09;;;;;;;25.13;10.88;;;11.90;99.90;;;;;;5054232;28;20163;-37
2023/04/16 08:30:34;;;;;;;22.52;10.52;;;11.90;99.90;;;;;;5060479;28;20153;-36
2023/04/16 08:33:00;;;;;;;22.63;10.45;;;11.90;99.90;;;;;;5062823;28;20072;-36
2023/04/16 08:35:26;;;;;;;26.10;11.05;;;11.90;99.90;;;;;;5063664;28;20051;-36
2023/04/16 08:37:52;;;;;;;28.95;11.23;;;12.00;99.90;;;;;;5057575;28;20272;-36
2023/04/16 08:40:18;;;;;;;23.88;10.13;;;12.10;99.90;;;;;;5053601;28;20091;-36
2023/04/16 08:42:55;;;;;;;24.88;10.27;;;12.20;99.90;;;;;;5064017;28;20138;-37
2023/04/16 08:45:20;;;;;;;24.42;10.45;;;12.30;99.90;;;;;;5063606;28;20509;-36
2023/04/16 08:47:51;;;;;;;23.92;11.38;;;12.30;99.90;;;;;;5063613;28;20057;-36
2023/04/16 08:50:25;;;;;;;20.95;10.60;;;12.40;99.90;;;;;;5060987;28;20102;-36
2023/04/16 08:52:52;;;;;;;26.55;10.63;;;12.50;99.90;;;;;;5060410;28;20048;-36
2023/04/16 08:55:22;;;;;;;23.00;10.45;;;12.50;99.90;;;;;;5060649;28;20078;-36
2023/04/16 08:57:53;;;;;;;23.67;10.38;;;12.60;99.90;;;;;;5064486;28;20140;-36
2023/04/16 09:00:19;;;;;;;19.02;10.43;;;12.70;99.90;;;;;;5060052;28;20519;-36
2023/04/16 09:02:45;;;;;;;18.88;9.98;;;12.70;99.90;;;;;;5044133;28;20644;-36
2023/04/16 09:05:17;;;;;;;18.45;8.68;;;12.90;99.90;;;;;;5067335;28;20053;-37
2023/04/16 09:07:45;;;;;;;22.55;9.85;;;13.00;99.90;;;;;;5057660;28;20052;-36
2023/04/16 09:10:12;;;;;;;25.67;9.70;;;13.00;99.90;;;;;;5064649;28;20482;-36
2023/04/16 09:12:40;;;;;;;20.10;9.73;;;13.10;99.90;;;;;;5064704;28;20079;-36
2023/04/16 09:15:08;;;;;;;21.65;9.13;;;13.10;99.90;;;;;;5063257;28;20052;-36
2023/04/16 09:17:34;;;;;;;23.50;10.15;;;13.10;99.90;;;;;;5064354;28;20500;-36
2023/04/16 09:20:00;;;;;;;23.25;9.88;;;13.00;99.90;;;;;;5066441;28;20102;-36
2023/04/16 09:22:25;;;;;;;25.55;11.05;;;13.00;99.90;;;;;;5067747;28;20584;-36
2023/04/16 09:24:51;;;;;;;22.08;9.65;;;13.10;99.90;;;;;;5068572;28;20071;-37
2023/04/16 09:27:17;;;;;;;23.15;9.27;;;13.10;99.90;;;;;;5065150;28;20060;-37
2023/04/16 09:29:42;;;;;;;24.65;10.73;;;13.20;99.90;;;;;;5063024;28;20050;-36
2023/04/16 09:32:10;;;;;;;25.10;10.77;;;13.40;99.90;;;;;;5064662;28;20094;-36
2023/04/16 09:34:57;;;;;;;19.80;9.82;;;13.50;99.90;;;;;;5061851;28;20063;-36
2023/04/16 09:37:28;;;;;;;20.95;9.77;;;13.70;99.90;;;;;;5067256;28;20478;-36
2023/04/16 09:39:59;;;;;;;22.00;9.40;;;13.90;99.90;;;;;;5069068;28;20055;-36
2023/04/16 09:42:27;;;;;;;21.08;10.05;;;14.00;99.90;;;;;;5058808;28;20049;-37
2023/04/16 09:44:54;;;;;;;18.60;9.95;;;14.20;99.90;;;;;;5068751;28;20163;-36
2023/04/16 09:47:20;;;;;;;20.15;9.43;;;14.30;99.90;;;;;;5061216;28;20093;-37
2023/04/16 09:49:46;;;;;;;21.35;9.00;;;14.40;99.90;;;;;;5067680;28;20102;-37
2023/04/16 09:52:16;;;;;;;24.48;9.98;;;14.50;99.90;;;;;;5069614;28;20068;-36
2023/04/16 09:54:49;;;;;;;19.05;9.77;;;14.50;99.90;;;;;;5063912;28;20152;-36
2023/04/16 09:57:23;;;;;;;22.10;9.85;;;14.40;99.90;;;;;;5067804;28;20229;-36
2023/04/16 09:59:53;;;;;;;25.25;10.38;;;14.50;99.90;;;;;;5064273;28;20583;-36
2023/04/16 10:02:19;;;;;;;21.98;10.10;;;14.70;99.90;;;;;;5066040;28;20063;-36
2023/04/16 10:04:50;;;;;;;22.83;9.98;;;14.90;99.90;;;;;;5066757;28;20056;-36
2023/04/16 10:07:16;;;;;;;21.83;9.43;;;14.80;99.90;;;;;;5065276;28;20060;-36
2023/04/16 10:09:42;;;;;;;24.80;10.40;;;14.80;99.90;;;;;;5066423;28;20052;-36
2023/04/16 10:12:08;;;;;;;23.30;9.68;;;14.90;99.90;;;;;;5059533;28;20471;-36
2023/04/16 10:14:34;;;;;;;22.23;10.55;;;15.00;99.90;;;;;;5072587;28;20052;-36
2023/04/16 10:17:01;;;;;;;18.50;9.55;;;15.10;99.90;;;;;;5061217;28;20126;-36
2023/04/16 10:19:27;;;;;;;19.85;9.80;;;15.20;99.90;;;;;;5063256;28;20051;-38
2023/04/16 10:21:54;;;;;;;21.15;9.10;;;15.30;99.90;;;;;;5062755;28;20123;-36
2023/04/16 10:24:20;;;;;;;25.38;10.35;;;15.40;99.90;;;;;;5069496;28;20048;-36
2023/04/16 10:26:48;;;;;;;16.27;8.25;;;15.40;99.90;;;;;;5059614;28;20498;-36
2023/04/16 10:29:14;;;;;;;17.08;8.73;;;15.40;99.90;;;;;;5062927;28;20041;-36
2023/04/16 10:31:41;;;;;;;15.50;8.13;;;15.50;99.90;;;;;;5062971;28;20052;-36
2023/04/16 10:34:08;;;;;;;19.13;9.27;;;15.60;99.90;;;;;;5061635;28;20048;-36
2023/04/16 10:36:38;;;;;;;19.77;8.90;;;15.70;99.90;;;;;;5067963;28;20052;-37
2023/04/16 10:39:10;;;;;;;19.63;10.02;;;15.70;99.90;;;;;;5067240;28;20260;-36
2023/04/16 10:41:36;;;;;;;17.80;8.25;;;15.60;99.90;;;;;;5067470;28;20512;-36
2023/04/16 10:44:08;;;;;;;19.85;9.90;;;15.50;99.90;;;;;;5074161;28;20056;-36
2023/04/16 10:46:40;;;;;;;21.83;9.38;;;15.40;99.90;;;;;;5060742;28;20084;-36
2023/04/16 10:49:22;;;;;;;16.98;8.98;;;15.40;99.90;;;;;;5068709;28;20041;-36
2023/04/16 10:52:06;;;;;;;20.88;9.27;;;15.40;99.90;;;;;;5061083;28;20044;-36
2023/04/16 10:54:34;;;;;;;22.52;9.23;;;15.40;99.90;;;;;;5062804;28;20570;-37
2023/04/16 10:57:06;;;;;;;19.30;8.32;;;15.50;99.90;;;;;;5064463;28;20068;-36
2023/04/16 10:59:34;;;;;;;21.63;9.45;;;15.50;99.90;;;;;;5063555;28;20139;-37
2023/04/16 11:02:06;;;;;;;18.95;8.52;;;15.50;99.90;;;;;;5065811;28;20061;-36
2023/04/16 11:04:38;;;;;;;20.70;8.65;;;15.70;99.90;;;;;;5065692;28;20044;-36
2023/04/16 11:07:10;;;;;;;22.25;9.63;;;15.70;99.90;;;;;;5063402;28;20059;-36
2023/04/16 11:09:52;;;;;;;22.05;9.23;;;15.60;99.90;;;;;;5066071;28;20059;-36
2023/04/16 11:12:26;;;;;;;20.05;8.52;;;15.70;99.90;;;;;;5062773;28;20044;-36
2023/04/16 11:14:59;;;;;;;19.75;9.57;;;15.80;99.90;;;;;;5031382;28;20044;-36
2023/04/16 11:17:32;;;;;;;18.95;9.50;;;15.90;99.90;;;;;;5066564;28;20569;-36
2023/04/16 11:19:57;;;;;;;;;;;15.90;99.90;;;;;;5063248;28;20051;-36
2023/04/16 11:22:23;;;;;;;20.08;8.45;;;15.90;99.90;;;;;;5052251;28;20033;-36
2023/04/16 11:24:54;;;;;;;20.35;9.73;;;15.90;99.90;;;;;;5055807;28;20516;-36
2023/04/16 11:27:20;;;;;;;18.05;9.40;;;15.90;99.90;;;;;;5051813;28;21613;-36
2023/04/16 11:29:55;;;;;;;19.25;9.30;;;16.00;99.90;;;;;;5060498;28;20044;-36
2023/04/16 11:32:21;;;;;;;20.25;9.35;;;16.00;99.90;;;;;;5061150;28;20044;-37
2023/04/16 11:34:47;;;;;;;20.70;8.68;;;16.10;99.90;;;;;;5067109;28;20044;-36
2023/04/16 11:37:12;;;;;;;19.95;8.48;;;16.10;99.90;;;;;;5044649;28;20041;-36
2023/04/16 11:39:49;;;;;;;23.27;8.60;;;16.10;99.90;;;;;;5061136;28;20497;-36
2023/04/16 11:42:21;;;;;;;15.52;8.77;;;16.10;99.90;;;;;;5064766;28;20134;-36
2023/04/16 11:44:53;;;;;;;16.90;8.75;;;16.00;99.90;;;;;;5064459;28;20047;-36
2023/04/16 11:47:19;;;;;;;22.65;9.52;;;15.90;99.90;;;;;;5061839;28;20098;-36
2023/04/16 11:49:45;;;;;;;18.77;9.63;;;15.80;99.90;;;;;;5060770;28;20506;-36
2023/04/16 11:52:11;;;;;;;16.08;8.70;;;15.80;99.90;;;;;;5061392;28;20068;-37
2023/04/16 11:54:37;;;;;;;19.65;8.38;;;15.80;99.90;;;;;;5056746;28;20115;-36
2023/04/16 11:57:06;;;;;;;20.45;8.73;;;15.90;99.90;;;;;;5057833;28;20055;-36
2023/04/16 11:59:32;;;;;;;22.83;9.13;;;16.10;99.90;;;;;;5050989;28;20491;-36
2023/04/16 12:01:58;;;;;;;25.88;9.70;;;16.10;99.90;;;;;;5061697;28;20072;-36
2023/04/16 12:04:25;;;;;;;20.10;9.55;;;16.00;99.90;;;;;;5055300;28;20269;-36
2023/04/16 12:07:11;;;;;;;18.80;8.13;;;16.00;99.90;;;;;;5068384;28;20049;-36
2023/04/16 12:09:38;;;;;;;20.90;9.70;;;16.10;99.90;;;;;;5067484;28;20060;-36
2023/04/16 12:12:04;;;;;;;20.88;9.35;;;16.20;99.90;;;;;;5067672;28;20048;-37
2023/04/16 12:14:31;;;;;;;17.48;8.43;;;16.30;99.90;;;;;;5060062;28;20418;-37
2023/04/16 12:17:19;;;;;;;21.08;9.77;;;16.20;99.90;;;;;;5064596;28;20059;-37
2023/04/16 12:19:55;;;;;;;20.42;9.50;;;16.20;99.90;;;;;;5066619;28;20056;-37
2023/04/16 12:22:29;;;;;;;17.63;8.38;;;16.20;99.90;;;;;;5066339;28;20063;-37
2023/04/16 12:24:59;;;;;;;19.35;9.00;;;16.20;99.90;;;;;;5063840;28;20060;-35
2023/04/16 12:27:27;;;;;;;16.77;8.63;;;16.10;99.90;;;;;;5062947;28;20052;-35
2023/04/16 12:30:06;;;;;;;16.02;7.90;;;16.00;99.90;;;;;;5070093;28;20044;-35
2023/04/16 12:32:32;;;;;;;21.50;8.65;;;16.00;99.90;;;;;;5063445;28;20633;-35
2023/04/16 12:34:58;;;;;;;14.85;8.23;;;16.00;99.90;;;;;;5059464;28;20048;-36